createdAt,value
2022-08-28T00:04:54.256Z,27.17
2022-08-28T00:10:02.217Z,32.13
2022-08-28T00:15:12.953Z,33.87
2022-08-28T00:20:21.331Z,31.63
2022-08-28T00:25:32.288Z,32.13
2022-08-28T00:30:42.805Z,29.77
2022-08-28T00:35:50.936Z,31.93
2022-08-28T00:41:01.006Z,31.40
2022-08-28T00:46:13.971Z,30.23
2022-08-28T00:51:23.516Z,28.50
2022-08-28T00:56:31.730Z,29.10
2022-08-28T01:01:39.662Z,28.90
2022-08-28T01:06:48.865Z,28.67
2022-08-28T01:11:59.489Z,31.33
2022-08-28T01:17:07.728Z,28.27
2022-08-28T01:27:31.863Z,33.40
2022-08-28T01:32:42.514Z,30.03
2022-08-28T01:37:50.406Z,31.53
2022-08-28T01:42:59.805Z,30.23
2022-08-28T01:48:07.993Z,27.87
2022-08-28T01:53:17.241Z,28.47
2022-08-28T01:58:25.276Z,30.33
2022-08-28T02:03:35.497Z,35.90
2022-08-28T02:08:43.529Z,32.73
2022-08-28T02:13:52.370Z,31.40
2022-08-28T02:19:03.787Z,28.93
2022-08-28T02:24:11.795Z,26.93
2022-08-28T02:29:19.693Z,28.63
2022-08-28T02:34:27.643Z,28.40
2022-08-28T02:39:35.743Z,27.00
2022-08-28T02:44:43.701Z,30.43
2022-08-28T02:49:51.617Z,32.47
2022-08-28T02:54:59.513Z,35.67
2022-08-28T03:00:10.341Z,37.50
2022-08-28T03:05:21.265Z,38.40
2022-08-28T03:10:29.193Z,35.90
2022-08-28T03:15:38.437Z,33.33
2022-08-28T03:20:47.339Z,31.03
2022-08-28T03:26:01.981Z,32.95
2022-08-28T03:31:14.153Z,28.53
2022-08-28T03:36:24.451Z,26.50
2022-08-28T03:41:32.710Z,32.03
2022-08-28T03:46:40.563Z,32.97
2022-08-28T03:51:49.387Z,31.63
2022-08-28T03:56:57.467Z,32.07
2022-08-28T04:02:05.316Z,30.70
2022-08-28T04:07:13.718Z,29.60
2022-08-28T04:12:21.559Z,28.83
2022-08-28T04:17:29.531Z,28.97
2022-08-28T04:22:37.566Z,30.70
2022-08-28T04:27:45.522Z,30.00
2022-08-28T04:32:53.514Z,31.17
2022-08-28T04:38:05.494Z,31.70
2022-08-28T04:43:11.506Z,26.57
2022-08-28T04:48:19.692Z,26.07
2022-08-28T04:53:27.753Z,25.13
2022-08-28T04:58:35.636Z,26.30
2022-08-28T05:03:43.595Z,26.17
2022-08-28T05:08:51.516Z,26.50
2022-08-28T05:13:59.446Z,26.60
2022-08-28T05:19:07.352Z,25.77
2022-08-28T05:24:15.458Z,24.57
2022-08-28T05:29:23.539Z,21.20
2022-08-28T05:34:37.885Z,20.03
2022-08-28T05:39:45.889Z,20.70
2022-08-28T05:44:54.624Z,19.33
2022-08-28T05:50:03.711Z,19.53
2022-08-28T05:55:12.512Z,18.53
2022-08-28T06:00:20.550Z,19.83
2022-08-28T06:05:29.757Z,20.20
2022-08-28T06:10:39.286Z,21.17
2022-08-28T06:15:48.922Z,19.55
2022-08-28T06:20:56.898Z,18.60
2022-08-28T06:26:07.167Z,20.57
2022-08-28T06:31:23.532Z,18.93
2022-08-28T06:36:25.760Z,20.50
2022-08-28T06:41:34.239Z,21.30
2022-08-28T06:46:42.634Z,20.37
2022-08-28T06:51:50.949Z,18.93
2022-08-28T06:56:58.934Z,18.73
2022-08-28T07:02:08.049Z,19.47
2022-08-28T07:07:31.818Z,20.37
2022-08-28T07:12:25.711Z,19.73
2022-08-28T07:17:33.620Z,17.80
2022-08-28T07:22:41.699Z,20.20
2022-08-28T07:27:49.785Z,18.33
2022-08-28T07:32:57.791Z,16.07
2022-08-28T07:38:07.371Z,16.70
2022-08-28T07:43:17.014Z,16.97
2022-08-28T07:48:25.238Z,15.87
2022-08-28T07:53:36.475Z,14.20
2022-08-28T07:58:43.790Z,14.17
2022-08-28T08:03:51.788Z,13.97
2022-08-28T08:09:01.537Z,14.57
2022-08-28T08:14:09.665Z,14.97
2022-08-28T08:19:19.214Z,15.40
2022-08-28T08:24:28.760Z,14.73
2022-08-28T08:29:37.588Z,14.13
2022-08-28T08:34:46.305Z,12.83
2022-08-28T08:39:55.176Z,12.10
2022-08-28T08:45:04.557Z,11.47
2022-08-28T08:50:16.390Z,11.33
2022-08-28T08:55:29.306Z,11.27
2022-08-28T09:00:40.449Z,11.50
2022-08-28T09:05:51.841Z,10.60
2022-08-28T09:11:03.141Z,10.07
2022-08-28T09:16:14.462Z,7.37
2022-08-28T09:21:29.200Z,7.60
2022-08-28T09:26:36.196Z,5.70
2022-08-28T09:31:44.661Z,5.40
2022-08-28T09:36:53.864Z,5.57
2022-08-28T09:42:06.568Z,5.77
2022-08-28T09:47:17.689Z,5.40
2022-08-28T09:52:25.738Z,4.90
2022-08-28T09:57:33.660Z,4.30
2022-08-28T10:02:46.214Z,3.87
2022-08-28T10:07:57.045Z,3.30
2022-08-28T10:13:09.908Z,3.20
2022-08-28T10:28:56.797Z,3.60
2022-08-28T10:34:08.647Z,3.03
2022-08-28T10:39:19.679Z,3.10
2022-08-28T10:44:31.617Z,3.10
2022-08-28T10:49:42.073Z,2.80
2022-08-28T11:00:11.323Z,3.37
2022-08-28T11:05:22.416Z,3.50
2022-08-28T11:10:35.155Z,2.47
2022-08-28T11:15:45.974Z,2.27
2022-08-28T11:20:58.532Z,2.97
2022-08-28T11:26:09.156Z,2.50
2022-08-28T11:31:28.925Z,2.37
2022-08-28T11:41:55.600Z,2.90
2022-08-28T11:47:06.898Z,2.67
2022-08-28T11:52:17.980Z,2.20
2022-08-28T11:57:29.356Z,2.23
2022-08-28T12:02:43.389Z,2.90
2022-08-28T12:07:53.888Z,2.93
2022-08-28T12:19:54.600Z,5.27
2022-08-28T12:25:04.633Z,5.73
2022-08-28T12:30:14.242Z,5.57
2022-08-28T12:35:23.962Z,4.27
2022-08-28T12:40:56.544Z,4.50
2022-08-28T12:46:18.971Z,4.93
2022-08-28T12:51:24.321Z,5.40
2022-08-28T12:56:34.853Z,6.07
2022-08-28T13:01:43.312Z,7.93
2022-08-28T13:06:53.571Z,10.03
2022-08-28T13:12:07.348Z,10.57
2022-08-28T13:17:18.516Z,11.90
2022-08-28T13:22:31.150Z,11.27
2022-08-28T13:27:42.454Z,11.50
2022-08-28T13:32:53.864Z,7.43
2022-08-28T13:38:04.650Z,5.70
2022-08-28T13:43:13.130Z,4.90
2022-08-28T13:53:52.425Z,4.73
2022-08-28T13:59:00.608Z,5.70
2022-08-28T14:04:08.614Z,4.83
2022-08-28T14:09:17.645Z,4.27
2022-08-28T14:14:26.516Z,2.47
2022-08-28T14:19:34.489Z,1.07
2022-08-28T14:24:43.551Z,0.60
2022-08-28T14:29:53.668Z,0.70
2022-08-28T14:35:02.006Z,0.50
2022-08-28T14:40:12.156Z,0.60
2022-08-28T14:45:20.440Z,0.50
2022-08-28T14:50:31.268Z,0.73
2022-08-28T14:55:42.502Z,0.90
2022-08-28T15:00:53.454Z,0.67
2022-08-28T15:06:06.565Z,1.00
2022-08-28T15:11:18.739Z,0.73
2022-08-28T15:16:33.365Z,1.00
2022-08-28T15:27:12.985Z,0.90
2022-08-28T15:32:24.248Z,0.80
2022-08-28T15:37:32.878Z,0.80
2022-08-28T15:42:42.542Z,1.00
2022-08-28T15:47:50.785Z,1.10
2022-08-28T15:52:58.902Z,1.30
2022-08-28T15:58:13.639Z,1.33
2022-08-28T16:03:17.612Z,1.80
2022-08-28T16:08:28.152Z,2.70
2022-08-28T16:13:36.366Z,2.80
2022-08-28T16:18:44.887Z,3.97
2022-08-28T16:23:54.546Z,3.57
2022-08-28T16:29:05.410Z,3.10
2022-08-28T16:34:14.145Z,2.97
2022-08-28T16:39:22.290Z,3.27
2022-08-28T16:44:30.267Z,3.63
2022-08-28T16:49:38.638Z,5.00
2022-08-28T16:54:48.682Z,6.10
2022-08-28T16:59:57.091Z,5.80
2022-08-28T17:05:06.081Z,7.40
2022-08-28T17:10:15.792Z,6.87
2022-08-28T17:15:24.006Z,6.90
2022-08-28T17:20:37.158Z,8.37
2022-08-28T17:25:46.104Z,9.03
2022-08-28T17:30:54.349Z,10.40
2022-08-28T17:36:02.934Z,9.47
2022-08-28T17:41:11.579Z,10.47
2022-08-28T17:46:20.541Z,11.60
2022-08-28T17:51:43.047Z,11.10
2022-08-28T17:56:38.652Z,11.40
2022-08-28T18:07:16.411Z,13.83
2022-08-28T18:12:24.727Z,14.23
2022-08-28T18:17:32.614Z,14.87
2022-08-28T18:22:40.639Z,13.83
2022-08-28T18:27:48.633Z,16.53
2022-08-28T18:32:58.323Z,17.03
2022-08-28T18:38:06.848Z,18.87
2022-08-28T18:43:15.016Z,20.20
2022-08-28T18:48:23.096Z,20.97
2022-08-28T18:53:31.313Z,18.83
2022-08-28T18:58:42.138Z,19.73
2022-08-28T19:03:50.767Z,18.37
2022-08-28T19:08:59.210Z,17.33
2022-08-28T19:14:07.818Z,17.37
2022-08-28T19:19:16.892Z,18.47
2022-08-28T19:24:27.748Z,16.97
2022-08-28T19:29:35.980Z,16.80
2022-08-28T19:34:45.563Z,14.47
2022-08-28T19:39:56.409Z,14.20
2022-08-28T19:45:06.296Z,14.20
2022-08-28T19:50:17.672Z,15.80
2022-08-28T19:55:27.976Z,15.03
2022-08-28T20:00:37.228Z,14.43
2022-08-28T20:05:51.491Z,15.10
2022-08-28T20:11:00.712Z,14.97
2022-08-28T20:16:11.574Z,13.23
2022-08-28T20:21:25.811Z,12.10
2022-08-28T20:26:31.236Z,13.13
2022-08-28T20:31:41.003Z,12.20
2022-08-28T20:36:49.521Z,12.03
2022-08-28T20:41:58.853Z,11.93
2022-08-28T20:47:07.753Z,10.67
2022-08-28T20:52:16.946Z,10.10
2022-08-28T20:57:25.038Z,9.87
2022-08-28T21:02:33.345Z,10.27
2022-08-28T21:07:48.167Z,8.27
2022-08-28T21:12:56.248Z,9.53
2022-08-28T21:18:09.092Z,8.83
2022-08-28T21:23:23.387Z,9.88
2022-08-28T21:28:35.177Z,9.00
2022-08-28T21:33:47.491Z,8.07
2022-08-28T21:39:00.928Z,7.47
2022-08-28T21:44:18.595Z,7.50
2022-08-28T21:49:33.569Z,7.97
2022-08-28T22:00:02.323Z,7.45
2022-08-28T22:05:14.153Z,8.23
2022-08-28T22:10:26.622Z,8.17
2022-08-28T22:15:38.957Z,7.00
2022-08-28T22:20:54.404Z,7.00
2022-08-28T22:26:07.120Z,7.63
2022-08-28T22:31:23.084Z,6.70
2022-08-28T22:36:35.372Z,6.25
2022-08-28T22:41:47.256Z,7.07
2022-08-28T22:46:58.145Z,8.70
2022-08-28T22:52:11.817Z,7.77
2022-08-28T22:57:24.115Z,7.17
2022-08-28T23:02:36.012Z,7.30
2022-08-28T23:07:47.153Z,7.60
2022-08-28T23:12:58.876Z,7.60
2022-08-28T23:18:10.340Z,7.13
2022-08-28T23:23:24.999Z,7.50
2022-08-28T23:28:33.616Z,7.43
2022-08-28T23:33:41.429Z,7.37
2022-08-28T23:38:49.407Z,6.90
2022-08-28T23:43:59.423Z,7.93
2022-08-28T23:49:07.515Z,7.60
2022-08-28T23:54:15.344Z,7.23
2022-08-28T23:59:23.260Z,7.20
